sensor_id;sensor_type;location;lat;lon;timestamp;P1;durP1;ratioP1;P2;durP2;ratioP2
19255;SDS011;9762;52.490;13.410;2024-03-07T00:00:07;83.83;;;41.20;;
19255;SDS011;9762;52.490;13.410;2024-03-07T00:02:47;83.70;;;38.67;;
19255;SDS011;9762;52.490;13.410;2024-03-07T00:05:14;79.37;;;39.37;;
19255;SDS011;9762;52.490;13.410;2024-03-07T00:07:40;87.57;;;41.17;;
19255;SDS011;9762;52.490;13.410;2024-03-07T00:10:06;94.27;;;41.73;;
19255;SDS011;9762;52.490;13.410;2024-03-07T00:12:35;82.27;;;37.70;;
19255;SDS011;9762;52.490;13.410;2024-03-07T00:15:03;90.53;;;41.80;;
19255;SDS011;9762;52.490;13.410;2024-03-07T00:17:30;88.50;;;39.00;;
19255;SDS011;9762;52.490;13.410;2024-03-07T00:19:56;86.37;;;39.70;;
19255;SDS011;9762;52.490;13.410;2024-03-07T00:22:22;80.50;;;39.67;;
19255;SDS011;9762;52.490;13.410;2024-03-07T00:24:49;85.87;;;40.97;;
19255;SDS011;9762;52.490;13.410;2024-03-07T00:27:14;80.93;;;39.40;;
19255;SDS011;9762;52.490;13.410;2024-03-07T00:29:40;82.73;;;38.07;;
19255;SDS011;9762;52.490;13.410;2024-03-07T00:32:06;79.13;;;39.37;;
19255;SDS011;9762;52.490;13.410;2024-03-07T00:34:33;90.13;;;38.40;;
19255;SDS011;9762;52.490;13.410;2024-03-07T00:36:59;79.53;;;38.40;;
19255;SDS011;9762;52.490;13.410;2024-03-07T00:39:25;77.53;;;38.83;;
19255;SDS011;9762;52.490;13.410;2024-03-07T00:41:51;86.33;;;39.40;;
19255;SDS011;9762;52.490;13.410;2024-03-07T00:44:17;76.23;;;38.23;;
19255;SDS011;9762;52.490;13.410;2024-03-07T00:46:43;78.37;;;37.53;;
19255;SDS011;9762;52.490;13.410;2024-03-07T00:49:08;88.63;;;40.03;;
19255;SDS011;9762;52.490;13.410;2024-03-07T00:51:34;79.93;;;38.93;;
19255;SDS011;9762;52.490;13.410;2024-03-07T00:54:00;86.90;;;38.33;;
19255;SDS011;9762;52.490;13.410;2024-03-07T00:56:26;78.77;;;38.53;;
19255;SDS011;9762;52.490;13.410;2024-03-07T00:58:53;82.50;;;36.67;;
19255;SDS011;9762;52.490;13.410;2024-03-07T01:01:19;76.23;;;36.97;;
19255;SDS011;9762;52.490;13.410;2024-03-07T01:03:44;83.73;;;38.00;;
19255;SDS011;9762;52.490;13.410;2024-03-07T01:06:10;80.17;;;35.07;;
19255;SDS011;9762;52.490;13.410;2024-03-07T01:08:36;88.43;;;37.73;;
19255;SDS011;9762;52.490;13.410;2024-03-07T01:11:03;83.77;;;36.97;;
19255;SDS011;9762;52.490;13.410;2024-03-07T01:13:37;84.60;;;36.63;;
19255;SDS011;9762;52.490;13.410;2024-03-07T01:16:06;77.57;;;36.87;;
19255;SDS011;9762;52.490;13.410;2024-03-07T01:18:32;82.97;;;37.40;;
19255;SDS011;9762;52.490;13.410;2024-03-07T01:21:02;71.90;;;36.57;;
19255;SDS011;9762;52.490;13.410;2024-03-07T01:23:28;74.00;;;35.87;;
19255;SDS011;9762;52.490;13.410;2024-03-07T01:25:58;73.00;;;36.37;;
19255;SDS011;9762;52.490;13.410;2024-03-07T01:28:24;71.97;;;35.37;;
19255;SDS011;9762;52.490;13.410;2024-03-07T01:30:50;77.17;;;36.53;;
19255;SDS011;9762;52.490;13.410;2024-03-07T01:33:17;78.13;;;36.30;;
19255;SDS011;9762;52.490;13.410;2024-03-07T01:35:46;79.63;;;36.43;;
19255;SDS011;9762;52.490;13.410;2024-03-07T01:38:12;70.63;;;33.57;;
19255;SDS011;9762;52.490;13.410;2024-03-07T01:40:42;76.57;;;36.33;;
19255;SDS011;9762;52.490;13.410;2024-03-07T01:43:08;78.37;;;36.13;;
19255;SDS011;9762;52.490;13.410;2024-03-07T01:45:35;75.90;;;36.10;;
19255;SDS011;9762;52.490;13.410;2024-03-07T01:48:02;71.27;;;35.37;;
19255;SDS011;9762;52.490;13.410;2024-03-07T01:50:34;80.93;;;36.13;;
19255;SDS011;9762;52.490;13.410;2024-03-07T01:53:03;93.50;;;38.07;;
19255;SDS011;9762;52.490;13.410;2024-03-07T01:55:29;90.43;;;38.37;;
19255;SDS011;9762;52.490;13.410;2024-03-07T01:57:56;78.03;;;34.10;;
19255;SDS011;9762;52.490;13.410;2024-03-07T02:00:23;70.60;;;34.43;;
19255;SDS011;9762;52.490;13.410;2024-03-07T02:02:49;83.23;;;34.27;;
19255;SDS011;9762;52.490;13.410;2024-03-07T02:05:14;72.47;;;34.93;;
19255;SDS011;9762;52.490;13.410;2024-03-07T02:07:40;69.90;;;34.07;;
19255;SDS011;9762;52.490;13.410;2024-03-07T02:10:07;71.27;;;33.07;;
19255;SDS011;9762;52.490;13.410;2024-03-07T02:12:34;71.33;;;33.20;;
19255;SDS011;9762;52.490;13.410;2024-03-07T02:15:01;73.83;;;34.10;;
19255;SDS011;9762;52.490;13.410;2024-03-07T02:17:27;66.33;;;33.57;;
19255;SDS011;9762;52.490;13.410;2024-03-07T02:19:54;66.40;;;32.80;;
19255;SDS011;9762;52.490;13.410;2024-03-07T02:22:20;73.37;;;33.97;;
19255;SDS011;9762;52.490;13.410;2024-03-07T02:24:46;73.30;;;35.10;;
19255;SDS011;9762;52.490;13.410;2024-03-07T02:27:12;71.23;;;33.60;;
19255;SDS011;9762;52.490;13.410;2024-03-07T02:29:39;74.50;;;33.47;;
19255;SDS011;9762;52.490;13.410;2024-03-07T02:32:08;67.77;;;31.77;;
19255;SDS011;9762;52.490;13.410;2024-03-07T02:34:34;81.37;;;33.83;;
19255;SDS011;9762;52.490;13.410;2024-03-07T02:37:00;77.57;;;35.20;;
19255;SDS011;9762;52.490;13.410;2024-03-07T02:39:26;63.37;;;33.67;;
19255;SDS011;9762;52.490;13.410;2024-03-07T02:41:52;74.13;;;34.80;;
19255;SDS011;9762;52.490;13.410;2024-03-07T02:44:18;75.30;;;34.13;;
19255;SDS011;9762;52.490;13.410;2024-03-07T02:46:44;78.87;;;36.27;;
19255;SDS011;9762;52.490;13.410;2024-03-07T02:49:11;74.67;;;35.40;;
19255;SDS011;9762;52.490;13.410;2024-03-07T02:51:38;63.60;;;32.73;;
19255;SDS011;9762;52.490;13.410;2024-03-07T02:54:03;87.60;;;37.37;;
19255;SDS011;9762;52.490;13.410;2024-03-07T02:56:30;70.10;;;37.20;;
19255;SDS011;9762;52.490;13.410;2024-03-07T02:58:56;76.17;;;36.63;;
19255;SDS011;9762;52.490;13.410;2024-03-07T03:01:22;74.17;;;36.17;;
19255;SDS011;9762;52.490;13.410;2024-03-07T03:03:47;76.27;;;37.23;;
19255;SDS011;9762;52.490;13.410;2024-03-07T03:06:13;72.83;;;36.63;;
19255;SDS011;9762;52.490;13.410;2024-03-07T03:08:39;73.73;;;36.20;;
19255;SDS011;9762;52.490;13.410;2024-03-07T03:11:04;71.90;;;34.60;;
19255;SDS011;9762;52.490;13.410;2024-03-07T03:13:30;75.83;;;36.90;;
19255;SDS011;9762;52.490;13.410;2024-03-07T03:15:56;79.73;;;37.57;;
19255;SDS011;9762;52.490;13.410;2024-03-07T03:18:22;70.00;;;35.23;;
19255;SDS011;9762;52.490;13.410;2024-03-07T03:20:48;68.10;;;35.10;;
19255;SDS011;9762;52.490;13.410;2024-03-07T03:23:17;69.23;;;36.30;;
19255;SDS011;9762;52.490;13.410;2024-03-07T03:25:43;63.27;;;34.53;;
19255;SDS011;9762;52.490;13.410;2024-03-07T03:28:10;68.77;;;35.27;;
19255;SDS011;9762;52.490;13.410;2024-03-07T03:30:38;73.63;;;36.93;;
19255;SDS011;9762;52.490;13.410;2024-03-07T03:33:05;75.57;;;36.70;;
19255;SDS011;9762;52.490;13.410;2024-03-07T03:35:32;66.30;;;33.87;;
19255;SDS011;9762;52.490;13.410;2024-03-07T03:38:00;62.47;;;35.57;;
19255;SDS011;9762;52.490;13.410;2024-03-07T03:40:26;67.57;;;35.37;;
19255;SDS011;9762;52.490;13.410;2024-03-07T03:42:52;69.00;;;35.53;;
19255;SDS011;9762;52.490;13.410;2024-03-07T03:45:18;62.13;;;34.57;;
19255;SDS011;9762;52.490;13.410;2024-03-07T03:47:43;67.37;;;34.87;;
19255;SDS011;9762;52.490;13.410;2024-03-07T03:50:11;61.40;;;35.13;;
19255;SDS011;9762;52.490;13.410;2024-03-07T03:52:38;65.23;;;34.53;;
19255;SDS011;9762;52.490;13.410;2024-03-07T03:55:04;59.43;;;34.47;;
19255;SDS011;9762;52.490;13.410;2024-03-07T03:57:43;57.93;;;33.90;;
19255;SDS011;9762;52.490;13.410;2024-03-07T04:00:10;64.03;;;33.47;;
19255;SDS011;9762;52.490;13.410;2024-03-07T04:02:40;57.57;;;33.23;;
19255;SDS011;9762;52.490;13.410;2024-03-07T04:05:06;52.20;;;32.20;;
19255;SDS011;9762;52.490;13.410;2024-03-07T04:07:34;59.43;;;33.43;;
19255;SDS011;9762;52.490;13.410;2024-03-07T04:10:00;53.97;;;31.87;;
19255;SDS011;9762;52.490;13.410;2024-03-07T04:12:28;51.67;;;30.83;;
19255;SDS011;9762;52.490;13.410;2024-03-07T04:14:54;55.23;;;29.70;;
19255;SDS011;9762;52.490;13.410;2024-03-07T04:17:20;48.70;;;28.77;;
19255;SDS011;9762;52.490;13.410;2024-03-07T04:19:46;44.33;;;28.53;;
19255;SDS011;9762;52.490;13.410;2024-03-07T04:22:12;41.87;;;28.00;;
19255;SDS011;9762;52.490;13.410;2024-03-07T04:24:38;40.53;;;28.47;;
19255;SDS011;9762;52.490;13.410;2024-03-07T04:27:05;44.80;;;28.60;;
19255;SDS011;9762;52.490;13.410;2024-03-07T04:29:31;52.83;;;29.63;;
19255;SDS011;9762;52.490;13.410;2024-03-07T04:31:58;47.77;;;29.13;;
19255;SDS011;9762;52.490;13.410;2024-03-07T04:34:28;44.13;;;27.30;;
19255;SDS011;9762;52.490;13.410;2024-03-07T04:36:58;46.33;;;28.27;;
19255;SDS011;9762;52.490;13.410;2024-03-07T04:39:26;44.33;;;27.97;;
19255;SDS011;9762;52.490;13.410;2024-03-07T04:44:25;46.23;;;27.47;;
19255;SDS011;9762;52.490;13.410;2024-03-07T04:46:51;39.67;;;27.77;;
19255;SDS011;9762;52.490;13.410;2024-03-07T04:49:23;40.50;;;27.70;;
19255;SDS011;9762;52.490;13.410;2024-03-07T04:51:50;42.73;;;27.07;;
19255;SDS011;9762;52.490;13.410;2024-03-07T04:54:17;40.20;;;28.00;;
19255;SDS011;9762;52.490;13.410;2024-03-07T04:56:46;43.93;;;27.73;;
19255;SDS011;9762;52.490;13.410;2024-03-07T04:59:12;40.60;;;26.43;;
19255;SDS011;9762;52.490;13.410;2024-03-07T05:01:41;44.73;;;28.23;;
19255;SDS011;9762;52.490;13.410;2024-03-07T05:04:07;44.13;;;28.33;;
19255;SDS011;9762;52.490;13.410;2024-03-07T05:06:33;39.07;;;26.83;;
19255;SDS011;9762;52.490;13.410;2024-03-07T05:09:00;39.00;;;27.13;;
19255;SDS011;9762;52.490;13.410;2024-03-07T05:11:27;38.23;;;26.40;;
19255;SDS011;9762;52.490;13.410;2024-03-07T05:13:53;36.10;;;27.03;;
19255;SDS011;9762;52.490;13.410;2024-03-07T05:16:19;38.37;;;27.33;;
19255;SDS011;9762;52.490;13.410;2024-03-07T05:18:45;42.60;;;26.77;;
19255;SDS011;9762;52.490;13.410;2024-03-07T05:21:12;45.03;;;27.67;;
19255;SDS011;9762;52.490;13.410;2024-03-07T05:23:56;42.60;;;28.23;;
19255;SDS011;9762;52.490;13.410;2024-03-07T05:26:22;39.60;;;25.80;;
19255;SDS011;9762;52.490;13.410;2024-03-07T05:28:49;41.00;;;26.47;;
19255;SDS011;9762;52.490;13.410;2024-03-07T05:31:14;36.63;;;26.83;;
19255;SDS011;9762;52.490;13.410;2024-03-07T05:33:43;35.73;;;26.27;;
19255;SDS011;9762;52.490;13.410;2024-03-07T05:36:09;41.70;;;28.83;;
19255;SDS011;9762;52.490;13.410;2024-03-07T05:38:41;44.70;;;27.87;;
19255;SDS011;9762;52.490;13.410;2024-03-07T05:41:10;38.00;;;27.23;;
19255;SDS011;9762;52.490;13.410;2024-03-07T05:43:37;44.57;;;27.80;;
19255;SDS011;9762;52.490;13.410;2024-03-07T05:46:03;40.53;;;27.40;;
19255;SDS011;9762;52.490;13.410;2024-03-07T05:48:31;45.17;;;28.27;;
19255;SDS011;9762;52.490;13.410;2024-03-07T05:50:57;36.80;;;26.70;;
19255;SDS011;9762;52.490;13.410;2024-03-07T05:53:23;44.27;;;28.30;;
19255;SDS011;9762;52.490;13.410;2024-03-07T05:55:49;40.23;;;25.73;;
19255;SDS011;9762;52.490;13.410;2024-03-07T05:58:15;39.53;;;26.90;;
19255;SDS011;9762;52.490;13.410;2024-03-07T06:00:45;39.67;;;26.20;;
19255;SDS011;9762;52.490;13.410;2024-03-07T06:03:17;42.47;;;26.60;;
19255;SDS011;9762;52.490;13.410;2024-03-07T06:05:47;41.80;;;26.13;;
19255;SDS011;9762;52.490;13.410;2024-03-07T06:08:16;37.03;;;24.23;;
19255;SDS011;9762;52.490;13.410;2024-03-07T06:10:43;36.83;;;26.13;;
19255;SDS011;9762;52.490;13.410;2024-03-07T06:13:10;37.93;;;26.87;;
19255;SDS011;9762;52.490;13.410;2024-03-07T06:15:36;36.30;;;24.53;;
19255;SDS011;9762;52.490;13.410;2024-03-07T06:18:05;34.87;;;25.10;;
19255;SDS011;9762;52.490;13.410;2024-03-07T06:20:33;39.87;;;25.87;;
19255;SDS011;9762;52.490;13.410;2024-03-07T06:23:00;36.87;;;24.30;;
19255;SDS011;9762;52.490;13.410;2024-03-07T06:25:29;47.10;;;24.63;;
19255;SDS011;9762;52.490;13.410;2024-03-07T06:28:15;33.93;;;23.93;;
19255;SDS011;9762;52.490;13.410;2024-03-07T06:30:44;30.50;;;21.77;;
19255;SDS011;9762;52.490;13.410;2024-03-07T06:33:10;31.53;;;21.97;;
19255;SDS011;9762;52.490;13.410;2024-03-07T06:35:36;36.13;;;23.37;;
19255;SDS011;9762;52.490;13.410;2024-03-07T06:38:06;29.57;;;21.53;;
19255;SDS011;9762;52.490;13.410;2024-03-07T06:40:36;29.10;;;21.40;;
19255;SDS011;9762;52.490;13.410;2024-03-07T06:43:03;30.87;;;21.43;;
19255;SDS011;9762;52.490;13.410;2024-03-07T06:45:29;29.07;;;20.87;;
19255;SDS011;9762;52.490;13.410;2024-03-07T06:47:56;29.93;;;20.67;;
19255;SDS011;9762;52.490;13.410;2024-03-07T06:50:21;29.13;;;20.07;;
19255;SDS011;9762;52.490;13.410;2024-03-07T06:52:48;30.30;;;19.90;;
19255;SDS011;9762;52.490;13.410;2024-03-07T06:55:17;30.70;;;19.13;;
19255;SDS011;9762;52.490;13.410;2024-03-07T06:57:46;25.13;;;18.47;;
19255;SDS011;9762;52.490;13.410;2024-03-07T07:00:12;26.33;;;17.87;;
19255;SDS011;9762;52.490;13.410;2024-03-07T07:02:40;22.50;;;17.37;;
19255;SDS011;9762;52.490;13.410;2024-03-07T07:05:06;23.27;;;16.93;;
19255;SDS011;9762;52.490;13.410;2024-03-07T07:07:39;25.60;;;17.70;;
19255;SDS011;9762;52.490;13.410;2024-03-07T07:10:08;21.73;;;16.67;;
19255;SDS011;9762;52.490;13.410;2024-03-07T07:12:40;25.37;;;17.37;;
19255;SDS011;9762;52.490;13.410;2024-03-07T07:15:07;25.53;;;17.50;;
19255;SDS011;9762;52.490;13.410;2024-03-07T07:17:33;31.80;;;22.63;;
19255;SDS011;9762;52.490;13.410;2024-03-07T07:19:58;28.10;;;18.47;;
19255;SDS011;9762;52.490;13.410;2024-03-07T07:22:25;24.50;;;17.00;;
19255;SDS011;9762;52.490;13.410;2024-03-07T07:24:51;21.77;;;17.17;;
19255;SDS011;9762;52.490;13.410;2024-03-07T07:27:16;20.83;;;15.77;;
19255;SDS011;9762;52.490;13.410;2024-03-07T07:29:43;24.27;;;16.00;;
19255;SDS011;9762;52.490;13.410;2024-03-07T07:32:09;24.50;;;16.80;;
19255;SDS011;9762;52.490;13.410;2024-03-07T07:34:37;23.20;;;17.77;;
19255;SDS011;9762;52.490;13.410;2024-03-07T07:37:03;37.47;;;17.97;;
19255;SDS011;9762;52.490;13.410;2024-03-07T07:39:29;24.07;;;16.60;;
19255;SDS011;9762;52.490;13.410;2024-03-07T07:41:56;29.83;;;16.43;;
19255;SDS011;9762;52.490;13.410;2024-03-07T07:44:22;24.67;;;16.13;;
19255;SDS011;9762;52.490;13.410;2024-03-07T07:46:48;23.20;;;16.93;;
19255;SDS011;9762;52.490;13.410;2024-03-07T07:49:14;33.23;;;16.50;;
19255;SDS011;9762;52.490;13.410;2024-03-07T07:51:41;29.67;;;16.57;;
19255;SDS011;9762;52.490;13.410;2024-03-07T07:54:07;40.90;;;25.17;;
19255;SDS011;9762;52.490;13.410;2024-03-07T07:56:34;24.93;;;18.07;;
19255;SDS011;9762;52.490;13.410;2024-03-07T07:59:00;21.97;;;16.40;;
19255;SDS011;9762;52.490;13.410;2024-03-07T08:01:26;23.40;;;16.50;;
19255;SDS011;9762;52.490;13.410;2024-03-07T08:03:52;22.03;;;16.93;;
19255;SDS011;9762;52.490;13.410;2024-03-07T08:06:19;30.00;;;16.70;;
19255;SDS011;9762;52.490;13.410;2024-03-07T08:08:45;23.10;;;16.10;;
19255;SDS011;9762;52.490;13.410;2024-03-07T08:11:11;21.87;;;15.67;;
19255;SDS011;9762;52.490;13.410;2024-03-07T08:13:39;22.73;;;15.77;;
19255;SDS011;9762;52.490;13.410;2024-03-07T08:16:05;19.63;;;14.27;;
19255;SDS011;9762;52.490;13.410;2024-03-07T08:18:31;16.63;;;14.13;;
19255;SDS011;9762;52.490;13.410;2024-03-07T08:20:57;20.80;;;15.20;;
19255;SDS011;9762;52.490;13.410;2024-03-07T08:23:23;21.00;;;14.80;;
19255;SDS011;9762;52.490;13.410;2024-03-07T08:25:51;22.40;;;15.10;;
19255;SDS011;9762;52.490;13.410;2024-03-07T08:28:17;20.93;;;14.47;;
19255;SDS011;9762;52.490;13.410;2024-03-07T08:30:43;18.47;;;13.93;;
19255;SDS011;9762;52.490;13.410;2024-03-07T08:33:09;19.50;;;15.27;;
19255;SDS011;9762;52.490;13.410;2024-03-07T08:35:35;19.83;;;13.93;;
19255;SDS011;9762;52.490;13.410;2024-03-07T08:38:01;17.93;;;14.50;;
19255;SDS011;9762;52.490;13.410;2024-03-07T08:40:28;19.53;;;14.17;;
19255;SDS011;9762;52.490;13.410;2024-03-07T08:43:00;14.87;;;13.30;;
19255;SDS011;9762;52.490;13.410;2024-03-07T08:45:27;19.90;;;12.27;;
19255;SDS011;9762;52.490;13.410;2024-03-07T08:47:54;18.83;;;13.50;;
19255;SDS011;9762;52.490;13.410;2024-03-07T08:50:22;18.07;;;14.20;;
19255;SDS011;9762;52.490;13.410;2024-03-07T08:52:48;18.23;;;13.73;;
19255;SDS011;9762;52.490;13.410;2024-03-07T08:55:16;19.10;;;12.53;;
19255;SDS011;9762;52.490;13.410;2024-03-07T08:57:44;24.33;;;12.97;;
19255;SDS011;9762;52.490;13.410;2024-03-07T09:00:11;19.60;;;13.87;;
19255;SDS011;9762;52.490;13.410;2024-03-07T09:02:48;16.20;;;12.20;;
19255;SDS011;9762;52.490;13.410;2024-03-07T09:05:18;21.53;;;13.97;;
19255;SDS011;9762;52.490;13.410;2024-03-07T09:07:44;22.60;;;15.00;;
19255;SDS011;9762;52.490;13.410;2024-03-07T09:10:12;28.90;;;21.37;;
19255;SDS011;9762;52.490;13.410;2024-03-07T09:12:39;19.03;;;14.77;;
19255;SDS011;9762;52.490;13.410;2024-03-07T09:15:05;19.50;;;13.87;;
19255;SDS011;9762;52.490;13.410;2024-03-07T09:17:31;17.27;;;13.30;;
19255;SDS011;9762;52.490;13.410;2024-03-07T09:19:57;19.83;;;12.63;;
19255;SDS011;9762;52.490;13.410;2024-03-07T09:22:23;13.87;;;12.47;;
19255;SDS011;9762;52.490;13.410;2024-03-07T09:24:48;17.93;;;11.30;;
19255;SDS011;9762;52.490;13.410;2024-03-07T09:27:14;15.03;;;11.80;;
19255;SDS011;9762;52.490;13.410;2024-03-07T09:29:40;18.43;;;12.50;;
19255;SDS011;9762;52.490;13.410;2024-03-07T09:32:06;15.20;;;11.73;;
19255;SDS011;9762;52.490;13.410;2024-03-07T09:34:34;13.53;;;11.23;;
19255;SDS011;9762;52.490;13.410;2024-03-07T09:37:01;12.83;;;10.47;;
19255;SDS011;9762;52.490;13.410;2024-03-07T09:39:27;13.13;;;11.13;;
19255;SDS011;9762;52.490;13.410;2024-03-07T09:41:53;18.13;;;11.57;;
19255;SDS011;9762;52.490;13.410;2024-03-07T09:44:20;15.23;;;10.73;;
19255;SDS011;9762;52.490;13.410;2024-03-07T09:46:50;13.07;;;10.90;;
19255;SDS011;9762;52.490;13.410;2024-03-07T09:49:17;15.00;;;10.33;;
19255;SDS011;9762;52.490;13.410;2024-03-07T09:51:44;13.43;;;10.27;;
19255;SDS011;9762;52.490;13.410;2024-03-07T09:54:11;13.97;;;11.20;;
19255;SDS011;9762;52.490;13.410;2024-03-07T09:56:38;17.23;;;11.43;;
19255;SDS011;9762;52.490;13.410;2024-03-07T09:59:04;16.87;;;10.37;;
19255;SDS011;9762;52.490;13.410;2024-03-07T10:01:34;14.10;;;10.27;;
19255;SDS011;9762;52.490;13.410;2024-03-07T10:04:01;19.77;;;12.80;;
19255;SDS011;9762;52.490;13.410;2024-03-07T10:06:36;23.93;;;14.00;;
19255;SDS011;9762;52.490;13.410;2024-03-07T10:09:03;14.27;;;9.93;;
19255;SDS011;9762;52.490;13.410;2024-03-07T10:11:30;11.60;;;9.93;;
19255;SDS011;9762;52.490;13.410;2024-03-07T10:13:55;14.37;;;9.83;;
19255;SDS011;9762;52.490;13.410;2024-03-07T10:16:21;12.43;;;11.07;;
19255;SDS011;9762;52.490;13.410;2024-03-07T10:18:48;13.67;;;9.93;;
19255;SDS011;9762;52.490;13.410;2024-03-07T10:21:18;19.00;;;10.60;;
19255;SDS011;9762;52.490;13.410;2024-03-07T10:23:44;15.53;;;9.80;;
19255;SDS011;9762;52.490;13.410;2024-03-07T10:26:10;17.17;;;10.27;;
19255;SDS011;9762;52.490;13.410;2024-03-07T10:28:37;16.20;;;9.53;;
19255;SDS011;9762;52.490;13.410;2024-03-07T10:31:03;11.33;;;8.73;;
19255;SDS011;9762;52.490;13.410;2024-03-07T10:33:34;22.87;;;16.03;;
19255;SDS011;9762;52.490;13.410;2024-03-07T10:36:00;14.30;;;9.43;;
19255;SDS011;9762;52.490;13.410;2024-03-07T10:38:26;13.87;;;9.33;;
19255;SDS011;9762;52.490;13.410;2024-03-07T10:40:53;12.00;;;9.50;;
19255;SDS011;9762;52.490;13.410;2024-03-07T10:43:20;10.10;;;9.10;;
19255;SDS011;9762;52.490;13.410;2024-03-07T10:45:47;12.03;;;9.53;;
19255;SDS011;9762;52.490;13.410;2024-03-07T10:48:17;10.80;;;9.40;;
19255;SDS011;9762;52.490;13.410;2024-03-07T10:53:59;10.53;;;9.30;;
19255;SDS011;9762;52.490;13.410;2024-03-07T10:59:18;15.23;;;10.20;;
19255;SDS011;9762;52.490;13.410;2024-03-07T11:04:29;15.10;;;9.63;;
19255;SDS011;9762;52.490;13.410;2024-03-07T11:06:56;14.10;;;9.13;;
19255;SDS011;9762;52.490;13.410;2024-03-07T11:09:24;15.73;;;10.73;;
19255;SDS011;9762;52.490;13.410;2024-03-07T11:11:54;13.10;;;9.43;;
19255;SDS011;9762;52.490;13.410;2024-03-07T11:14:20;14.83;;;10.23;;
19255;SDS011;9762;52.490;13.410;2024-03-07T11:16:46;18.13;;;9.60;;
19255;SDS011;9762;52.490;13.410;2024-03-07T11:19:20;10.60;;;9.60;;
19255;SDS011;9762;52.490;13.410;2024-03-07T11:21:55;11.43;;;10.30;;
19255;SDS011;9762;52.490;13.410;2024-03-07T11:24:22;10.73;;;9.70;;
19255;SDS011;9762;52.490;13.410;2024-03-07T11:26:57;10.83;;;9.53;;
19255;SDS011;9762;52.490;13.410;2024-03-07T11:32:13;13.35;;;9.80;;
19255;SDS011;9762;52.490;13.410;2024-03-07T11:34:43;15.38;;;10.70;;
19255;SDS011;9762;52.490;13.410;2024-03-07T11:37:45;12.98;;;10.60;;
19255;SDS011;9762;52.490;13.410;2024-03-07T11:40:13;10.80;;;9.80;;
19255;SDS011;9762;52.490;13.410;2024-03-07T11:42:47;10.07;;;9.27;;
19255;SDS011;9762;52.490;13.410;2024-03-07T11:45:14;14.02;;;9.82;;
19255;SDS011;9762;52.490;13.410;2024-03-07T11:47:55;13.63;;;11.15;;
19255;SDS011;9762;52.490;13.410;2024-03-07T11:50:39;12.38;;;11.07;;
19255;SDS011;9762;52.490;13.410;2024-03-07T11:53:06;11.77;;;10.20;;
19255;SDS011;9762;52.490;13.410;2024-03-07T11:55:36;12.25;;;10.48;;
19255;SDS011;9762;52.490;13.410;2024-03-07T12:00:41;11.85;;;10.57;;
19255;SDS011;9762;52.490;13.410;2024-03-07T12:03:10;12.50;;;11.40;;
19255;SDS011;9762;52.490;13.410;2024-03-07T12:05:44;13.30;;;10.35;;
19255;SDS011;9762;52.490;13.410;2024-03-07T12:08:10;12.43;;;10.95;;
19255;SDS011;9762;52.490;13.410;2024-03-07T12:10:37;11.68;;;10.68;;
19255;SDS011;9762;52.490;13.410;2024-03-07T12:13:04;12.50;;;11.10;;
19255;SDS011;9762;52.490;13.410;2024-03-07T12:15:33;12.18;;;10.45;;
19255;SDS011;9762;52.490;13.410;2024-03-07T12:18:00;12.75;;;11.45;;
19255;SDS011;9762;52.490;13.410;2024-03-07T12:20:27;13.20;;;11.93;;
19255;SDS011;9762;52.490;13.410;2024-03-07T12:22:59;11.60;;;10.43;;
19255;SDS011;9762;52.490;13.410;2024-03-07T12:25:28;12.15;;;10.95;;
19255;SDS011;9762;52.490;13.410;2024-03-07T12:30:55;12.20;;;10.98;;
19255;SDS011;9762;52.490;13.410;2024-03-07T12:33:21;13.57;;;11.48;;
19255;SDS011;9762;52.490;13.410;2024-03-07T12:35:50;11.93;;;10.77;;
19255;SDS011;9762;52.490;13.410;2024-03-07T12:38:20;12.27;;;10.75;;
19255;SDS011;9762;52.490;13.410;2024-03-07T12:41:01;11.93;;;10.85;;
19255;SDS011;9762;52.490;13.410;2024-03-07T12:43:31;11.45;;;10.45;;
19255;SDS011;9762;52.490;13.410;2024-03-07T12:45:57;13.15;;;11.63;;
19255;SDS011;9762;52.490;13.410;2024-03-07T12:48:24;11.65;;;10.55;;
19255;SDS011;9762;52.490;13.410;2024-03-07T12:50:50;13.93;;;11.70;;
19255;SDS011;9762;52.490;13.410;2024-03-07T12:53:19;15.63;;;14.23;;
19255;SDS011;9762;52.490;13.410;2024-03-07T12:55:47;13.40;;;12.20;;
19255;SDS011;9762;52.490;13.410;2024-03-07T12:58:13;13.82;;;12.45;;
19255;SDS011;9762;52.490;13.410;2024-03-07T13:00:39;13.63;;;12.32;;
19255;SDS011;9762;52.490;13.410;2024-03-07T13:03:08;13.15;;;11.80;;
19255;SDS011;9762;52.490;13.410;2024-03-07T13:05:35;13.10;;;11.77;;
19255;SDS011;9762;52.490;13.410;2024-03-07T13:08:05;13.15;;;11.93;;
19255;SDS011;9762;52.490;13.410;2024-03-07T13:10:43;13.00;;;11.70;;
19255;SDS011;9762;52.490;13.410;2024-03-07T13:13:10;14.90;;;13.52;;
19255;SDS011;9762;52.490;13.410;2024-03-07T13:15:39;14.35;;;12.93;;
19255;SDS011;9762;52.490;13.410;2024-03-07T13:18:07;14.13;;;12.85;;
19255;SDS011;9762;52.490;13.410;2024-03-07T13:20:34;15.35;;;13.77;;
19255;SDS011;9762;52.490;13.410;2024-03-07T13:23:00;15.50;;;14.10;;
19255;SDS011;9762;52.490;13.410;2024-03-07T13:25:26;20.40;;;17.10;;
19255;SDS011;9762;52.490;13.410;2024-03-07T13:28:14;13.23;;;12.13;;
19255;SDS011;9762;52.490;13.410;2024-03-07T13:30:49;13.65;;;12.10;;
19255;SDS011;9762;52.490;13.410;2024-03-07T13:33:15;12.77;;;11.48;;
19255;SDS011;9762;52.490;13.410;2024-03-07T13:35:41;11.10;;;10.20;;
19255;SDS011;9762;52.490;13.410;2024-03-07T13:38:07;12.82;;;11.20;;
19255;SDS011;9762;52.490;13.410;2024-03-07T13:40:34;12.43;;;11.25;;
19255;SDS011;9762;52.490;13.410;2024-03-07T13:43:03;12.88;;;11.73;;
19255;SDS011;9762;52.490;13.410;2024-03-07T13:45:31;12.55;;;11.45;;
19255;SDS011;9762;52.490;13.410;2024-03-07T13:48:07;12.80;;;10.55;;
19255;SDS011;9762;52.490;13.410;2024-03-07T13:50:35;14.43;;;11.30;;
19255;SDS011;9762;52.490;13.410;2024-03-07T13:53:03;12.63;;;11.40;;
19255;SDS011;9762;52.490;13.410;2024-03-07T14:04:01;13.03;;;11.83;;
19255;SDS011;9762;52.490;13.410;2024-03-07T14:07:04;29.03;;;25.70;;
19255;SDS011;9762;52.490;13.410;2024-03-07T14:18:26;15.47;;;11.87;;
19255;SDS011;9762;52.490;13.410;2024-03-07T14:32:56;14.33;;;12.73;;
19255;SDS011;9762;52.490;13.410;2024-03-07T14:35:33;13.43;;;12.10;;
19255;SDS011;9762;52.490;13.410;2024-03-07T14:40:49;26.17;;;13.53;;
19255;SDS011;9762;52.490;13.410;2024-03-07T14:43:17;13.37;;;11.97;;
19255;SDS011;9762;52.490;13.410;2024-03-07T14:45:44;16.40;;;12.43;;
19255;SDS011;9762;52.490;13.410;2024-03-07T14:48:11;14.77;;;11.73;;
19255;SDS011;9762;52.490;13.410;2024-03-07T14:50:41;13.67;;;11.80;;
19255;SDS011;9762;52.490;13.410;2024-03-07T14:53:10;16.67;;;11.73;;
19255;SDS011;9762;52.490;13.410;2024-03-07T14:55:38;14.97;;;12.57;;
19255;SDS011;9762;52.490;13.410;2024-03-07T14:58:05;14.53;;;13.00;;
19255;SDS011;9762;52.490;13.410;2024-03-07T15:00:34;14.60;;;12.70;;
19255;SDS011;9762;52.490;13.410;2024-03-07T15:03:07;13.77;;;12.37;;
19255;SDS011;9762;52.490;13.410;2024-03-07T15:05:36;12.80;;;11.67;;
19255;SDS011;9762;52.490;13.410;2024-03-07T15:08:02;13.27;;;12.07;;
19255;SDS011;9762;52.490;13.410;2024-03-07T15:10:28;14.33;;;12.73;;
19255;SDS011;9762;52.490;13.410;2024-03-07T15:12:57;15.03;;;12.53;;
19255;SDS011;9762;52.490;13.410;2024-03-07T15:15:23;14.17;;;12.53;;
19255;SDS011;9762;52.490;13.410;2024-03-07T15:17:55;12.83;;;11.57;;